createdAt,value
2023-11-27T00:01:40.569Z,7.50
2023-11-27T00:04:09.721Z,7.88
2023-11-27T00:06:38.211Z,7.70
2023-11-27T00:09:06.902Z,7.82
2023-11-27T00:11:35.178Z,8.02
2023-11-27T00:14:04.137Z,9.18
2023-11-27T00:16:32.570Z,9.07
2023-11-27T00:19:01.246Z,9.70
2023-11-27T00:21:29.671Z,9.80
2023-11-27T00:23:58.372Z,9.63
2023-11-27T00:26:27.113Z,9.30
2023-11-27T00:31:27.190Z,8.68
2023-11-27T00:33:57.477Z,7.97
2023-11-27T00:36:27.017Z,7.80
2023-11-27T00:38:56.103Z,7.57
2023-11-27T00:41:24.435Z,7.20
2023-11-27T00:43:53.925Z,7.80
2023-11-27T00:46:22.405Z,7.60
2023-11-27T00:48:51.468Z,8.15
2023-11-27T00:51:19.872Z,7.25
2023-11-27T00:53:48.976Z,7.05
2023-11-27T00:56:17.434Z,7.40
2023-11-27T00:58:46.139Z,8.38
2023-11-27T01:01:16.235Z,8.40
2023-11-27T01:03:45.164Z,8.15
2023-11-27T01:06:15.327Z,7.47
2023-11-27T01:08:44.124Z,7.85
2023-11-27T01:11:13.007Z,7.97
2023-11-27T01:13:41.885Z,7.07
2023-11-27T01:16:10.291Z,8.88
2023-11-27T01:18:39.066Z,8.00
2023-11-27T01:21:07.568Z,8.35
2023-11-27T01:23:36.188Z,7.22
2023-11-27T01:26:04.737Z,8.23
2023-11-27T01:28:38.172Z,7.30
2023-11-27T01:31:06.687Z,7.57
2023-11-27T01:33:35.478Z,7.75
2023-11-27T01:36:04.118Z,7.80
2023-11-27T01:38:33.176Z,7.28
2023-11-27T01:41:01.678Z,6.60
2023-11-27T01:43:30.302Z,6.45
2023-11-27T01:46:18.273Z,6.35
2023-11-27T01:48:47.032Z,7.07
2023-11-27T01:51:15.606Z,7.47
2023-11-27T01:53:45.290Z,7.55
2023-11-27T01:56:14.260Z,7.00
2023-11-27T01:58:43.191Z,7.00
2023-11-27T02:01:11.794Z,8.02
2023-11-27T02:03:40.486Z,7.45
2023-11-27T02:06:09.028Z,8.40
2023-11-27T02:08:37.814Z,7.45
2023-11-27T02:11:06.500Z,7.68
2023-11-27T02:13:35.543Z,8.63
2023-11-27T02:16:04.671Z,6.72
2023-11-27T02:18:34.466Z,8.02
2023-11-27T02:21:04.102Z,8.32
2023-11-27T02:23:33.251Z,7.57
2023-11-27T02:26:02.157Z,7.63
2023-11-27T02:28:30.900Z,6.95
2023-11-27T02:30:59.490Z,6.95
2023-11-27T02:33:28.546Z,7.57
2023-11-27T02:35:57.273Z,8.27
2023-11-27T02:38:26.413Z,7.65
2023-11-27T02:40:54.757Z,7.47
2023-11-27T02:43:23.793Z,7.63
2023-11-27T02:45:52.512Z,7.25
2023-11-27T02:48:21.361Z,7.43
2023-11-27T02:50:49.663Z,7.43
2023-11-27T02:53:18.415Z,7.47
2023-11-27T02:55:46.989Z,7.85
2023-11-27T02:58:16.152Z,6.68
2023-11-27T03:00:45.169Z,7.28
2023-11-27T03:03:14.837Z,6.32
2023-11-27T03:05:43.321Z,7.15
2023-11-27T03:08:14.113Z,8.07
2023-11-27T03:10:42.509Z,7.55
2023-11-27T03:13:12.819Z,8.18
2023-11-27T03:15:41.322Z,7.80
2023-11-27T03:18:10.009Z,8.80
2023-11-27T03:20:39.102Z,7.95
2023-11-27T03:23:08.090Z,8.20
2023-11-27T03:25:36.759Z,8.32
2023-11-27T03:28:05.508Z,7.63
2023-11-27T03:30:33.751Z,7.85
2023-11-27T03:33:02.393Z,7.88
2023-11-27T03:35:30.838Z,8.10
2023-11-27T03:37:59.690Z,8.48
2023-11-27T03:40:28.118Z,7.80
2023-11-27T03:42:56.898Z,8.32
2023-11-27T03:45:25.276Z,8.52
2023-11-27T03:47:54.295Z,8.68
2023-11-27T03:50:25.051Z,8.18
2023-11-27T03:52:55.961Z,8.40
2023-11-27T03:55:25.984Z,8.68
2023-11-27T03:57:54.716Z,8.40
2023-11-27T04:00:23.258Z,8.80
2023-11-27T04:02:52.829Z,8.73
2023-11-27T04:05:21.265Z,8.70
2023-11-27T04:07:49.853Z,9.10
2023-11-27T04:10:19.820Z,8.82
2023-11-27T04:12:48.474Z,9.45
2023-11-27T04:15:18.025Z,8.68
2023-11-27T04:17:46.853Z,10.00
2023-11-27T04:20:18.040Z,11.65
2023-11-27T04:22:47.624Z,9.98
2023-11-27T04:25:17.333Z,10.15
2023-11-27T04:27:46.360Z,9.70
2023-11-27T04:30:14.911Z,9.18
2023-11-27T04:32:46.804Z,9.15
2023-11-27T04:35:15.177Z,9.25
2023-11-27T04:37:43.836Z,7.55
2023-11-27T04:40:15.981Z,7.93
2023-11-27T04:42:44.745Z,9.05
2023-11-27T04:45:13.152Z,8.52
2023-11-27T04:47:42.228Z,9.05
2023-11-27T04:50:10.793Z,8.30
2023-11-27T04:52:39.650Z,8.25
2023-11-27T04:55:09.018Z,8.05
2023-11-27T04:57:38.516Z,8.75
2023-11-27T05:00:07.572Z,7.10
2023-11-27T05:02:36.378Z,8.73
2023-11-27T05:05:05.598Z,8.95
2023-11-27T05:07:34.170Z,8.02
2023-11-27T05:10:02.988Z,9.27
2023-11-27T05:12:33.561Z,8.45
2023-11-27T05:15:03.930Z,8.88
2023-11-27T05:17:33.500Z,9.00
2023-11-27T05:20:02.347Z,8.93
2023-11-27T05:22:31.409Z,7.28
2023-11-27T05:24:59.668Z,8.80
2023-11-27T05:27:28.379Z,9.63
2023-11-27T05:29:57.809Z,7.40
2023-11-27T05:32:28.307Z,9.25
2023-11-27T05:34:57.607Z,9.25
2023-11-27T05:37:26.461Z,9.27
2023-11-27T05:39:56.374Z,9.52
2023-11-27T05:42:28.420Z,9.32
2023-11-27T05:45:01.224Z,9.20
2023-11-27T05:47:32.331Z,9.48
2023-11-27T05:50:00.694Z,9.93
2023-11-27T05:52:29.662Z,10.07
2023-11-27T05:54:58.241Z,9.18
2023-11-27T05:57:26.995Z,9.13
2023-11-27T05:59:55.725Z,10.70
2023-11-27T06:02:24.597Z,10.60
2023-11-27T06:04:53.487Z,10.50
2023-11-27T06:07:22.145Z,10.57
2023-11-27T06:09:50.518Z,10.13
2023-11-27T06:12:20.071Z,10.27
2023-11-27T06:14:48.535Z,9.57
2023-11-27T06:17:17.333Z,9.65
2023-11-27T06:19:45.815Z,9.18
2023-11-27T06:22:14.630Z,9.65
2023-11-27T06:24:43.694Z,9.90
2023-11-27T06:27:12.538Z,9.80
2023-11-27T06:29:41.003Z,10.35
2023-11-27T06:32:09.924Z,10.00
2023-11-27T06:34:38.629Z,10.25
2023-11-27T06:37:32.897Z,10.88
2023-11-27T06:40:01.253Z,9.88
2023-11-27T06:42:31.512Z,9.32
2023-11-27T06:45:02.216Z,9.13
2023-11-27T06:47:32.283Z,9.63
2023-11-27T06:50:00.977Z,9.93
2023-11-27T06:52:30.149Z,10.20
2023-11-27T06:54:58.959Z,9.60
2023-11-27T06:57:28.401Z,8.95
2023-11-27T06:59:56.952Z,9.95
2023-11-27T07:02:27.574Z,10.25
2023-11-27T07:04:55.985Z,10.32
2023-11-27T07:07:24.751Z,10.00
2023-11-27T07:09:57.561Z,9.30
2023-11-27T07:12:26.574Z,8.35
2023-11-27T07:14:54.963Z,10.13
2023-11-27T07:17:23.665Z,9.23
2023-11-27T07:19:52.105Z,9.52
2023-11-27T07:22:20.929Z,9.13
2023-11-27T07:24:52.299Z,10.35
2023-11-27T07:27:21.390Z,9.05
2023-11-27T07:29:49.764Z,10.65
2023-11-27T07:32:18.387Z,10.30
2023-11-27T07:34:46.630Z,10.23
2023-11-27T07:37:15.490Z,9.63
2023-11-27T07:39:46.038Z,10.57
2023-11-27T07:42:16.146Z,10.17
2023-11-27T07:44:44.843Z,10.52
2023-11-27T07:47:14.041Z,12.35
2023-11-27T07:49:48.553Z,11.02
2023-11-27T07:52:18.830Z,9.65
2023-11-27T07:54:50.333Z,11.10
2023-11-27T07:59:49.768Z,9.85
2023-11-27T08:02:18.561Z,10.32
2023-11-27T08:04:47.033Z,10.90
2023-11-27T08:07:15.894Z,11.80
2023-11-27T08:09:47.997Z,11.95
2023-11-27T08:12:17.734Z,11.35
2023-11-27T08:14:46.443Z,11.60
2023-11-27T08:17:15.657Z,10.77
2023-11-27T08:19:44.090Z,10.30
2023-11-27T08:22:12.954Z,11.63
2023-11-27T08:24:41.463Z,11.38
2023-11-27T08:27:10.488Z,10.65
2023-11-27T08:29:39.463Z,9.63
2023-11-27T08:32:08.508Z,21.63
2023-11-27T08:34:39.630Z,40.15
2023-11-27T08:37:11.049Z,11.32
2023-11-27T08:39:40.258Z,10.10
2023-11-27T08:42:08.922Z,11.35
2023-11-27T08:44:37.638Z,10.65
2023-11-27T08:47:07.047Z,18.60
2023-11-27T08:49:35.508Z,49.80
2023-11-27T08:52:04.501Z,101.63
2023-11-27T08:54:33.988Z,49.38
2023-11-27T08:57:02.602Z,13.45
2023-11-27T08:59:31.051Z,80.72
2023-11-27T09:02:00.283Z,14.55
2023-11-27T09:04:28.804Z,20.63
2023-11-27T09:06:57.929Z,12.73
2023-11-27T09:09:26.896Z,21.10
2023-11-27T09:11:57.117Z,32.10
2023-11-27T09:14:25.385Z,42.15
2023-11-27T09:16:56.582Z,21.23
2023-11-27T09:19:25.460Z,33.13
2023-11-27T09:21:55.821Z,18.85
2023-11-27T09:24:24.296Z,12.10
2023-11-27T09:26:53.053Z,10.93
2023-11-27T09:29:21.408Z,10.07
2023-11-27T09:31:51.298Z,21.38
2023-11-27T09:34:19.698Z,10.05
2023-11-27T09:36:56.390Z,11.77
2023-11-27T09:39:31.266Z,9.75
2023-11-27T09:42:00.544Z,10.80
2023-11-27T09:44:29.295Z,18.98
2023-11-27T09:47:16.756Z,10.35
2023-11-27T09:49:51.888Z,9.98
2023-11-27T09:52:21.890Z,10.65
2023-11-27T09:55:02.754Z,10.77
2023-11-27T09:57:36.011Z,9.70
2023-11-27T10:00:08.907Z,9.95
2023-11-27T10:02:37.610Z,8.07
2023-11-27T10:05:06.628Z,9.15
2023-11-27T10:07:39.085Z,8.52
2023-11-27T10:10:11.103Z,9.10
2023-11-27T10:12:45.608Z,8.90
2023-11-27T10:15:18.333Z,10.00
2023-11-27T10:17:49.049Z,9.90
2023-11-27T10:20:20.937Z,9.65
2023-11-27T10:22:49.964Z,7.63
2023-11-27T10:25:18.511Z,8.90
2023-11-27T10:27:47.942Z,7.53
2023-11-27T10:30:26.684Z,8.98
2023-11-27T10:32:55.555Z,8.40
2023-11-27T10:35:26.940Z,9.48
2023-11-27T10:37:56.365Z,8.73
2023-11-27T10:40:28.235Z,9.18
2023-11-27T10:43:02.879Z,7.82
2023-11-27T10:45:34.530Z,9.13
2023-11-27T10:48:04.258Z,8.80
2023-11-27T10:50:34.567Z,8.52
2023-11-27T10:53:07.700Z,9.32
2023-11-27T10:55:39.688Z,9.35
2023-11-27T10:58:11.395Z,9.55
2023-11-27T11:00:48.601Z,8.57
2023-11-27T11:03:24.403Z,8.55
2023-11-27T11:05:55.207Z,7.70
2023-11-27T11:08:28.688Z,8.17
2023-11-27T11:10:59.541Z,8.82
2023-11-27T11:13:29.260Z,8.75
2023-11-27T11:16:37.629Z,8.43
2023-11-27T11:19:18.059Z,6.93
2023-11-27T11:22:16.549Z,6.00
2023-11-27T11:24:59.889Z,7.57
2023-11-27T11:27:47.829Z,14.38
2023-11-27T11:30:16.841Z,13.65
2023-11-27T11:32:46.215Z,8.23
2023-11-27T11:35:15.034Z,8.50
2023-11-27T11:37:51.345Z,8.45
2023-11-27T11:40:20.439Z,9.07
2023-11-27T11:42:49.582Z,12.40
2023-11-27T11:45:26.957Z,8.23
2023-11-27T11:48:00.899Z,13.73
2023-11-27T11:50:35.195Z,13.00
2023-11-27T11:53:11.802Z,11.77
2023-11-27T11:55:41.103Z,9.57
2023-11-27T11:58:18.884Z,7.68
2023-11-27T12:00:49.215Z,14.00
2023-11-27T12:03:23.971Z,11.00
2023-11-27T12:05:56.860Z,7.60
2023-11-27T12:08:29.615Z,7.38
2023-11-27T12:11:00.485Z,9.27
2023-11-27T12:13:38.315Z,6.80
2023-11-27T12:16:15.435Z,6.72
2023-11-27T12:18:48.334Z,7.30
2023-11-27T12:21:25.972Z,8.35
2023-11-27T12:23:55.068Z,7.40
2023-11-27T12:26:26.949Z,6.60
2023-11-27T12:31:29.772Z,6.80
2023-11-27T12:34:04.591Z,6.78
2023-11-27T12:36:37.927Z,6.70
2023-11-27T12:39:12.414Z,7.75
2023-11-27T12:41:47.382Z,7.20
2023-11-27T12:44:25.008Z,7.05
2023-11-27T12:46:59.757Z,7.30
2023-11-27T12:49:35.560Z,7.45
2023-11-27T12:52:13.389Z,7.47
2023-11-27T12:54:41.920Z,7.57
2023-11-27T12:57:34.645Z,8.52
2023-11-27T13:00:04.524Z,7.53
2023-11-27T13:02:45.330Z,7.30
2023-11-27T13:05:14.211Z,8.23
2023-11-27T13:07:45.845Z,8.18
2023-11-27T13:10:14.637Z,7.35
2023-11-27T13:12:50.039Z,7.40
2023-11-27T13:15:25.635Z,6.90
2023-11-27T13:17:58.429Z,7.18
2023-11-27T13:20:29.020Z,7.65
2023-11-27T13:23:03.083Z,7.43
2023-11-27T13:25:38.996Z,7.32
2023-11-27T13:28:19.010Z,8.02
2023-11-27T13:30:56.752Z,7.78
2023-11-27T13:33:28.329Z,7.90
2023-11-27T13:35:59.288Z,8.02
2023-11-27T13:38:30.458Z,8.35
2023-11-27T13:41:03.192Z,9.05
2023-11-27T13:43:32.388Z,10.63
2023-11-27T13:46:01.040Z,9.32
2023-11-27T13:48:35.074Z,8.77
2023-11-27T13:51:17.542Z,9.55
2023-11-27T13:54:26.781Z,7.78
2023-11-27T13:57:01.028Z,8.13
2023-11-27T13:59:36.604Z,8.70
2023-11-27T14:02:12.738Z,13.00
2023-11-27T14:04:56.352Z,9.23
2023-11-27T14:07:29.528Z,9.82
2023-11-27T14:09:59.816Z,9.07
2023-11-27T14:12:39.929Z,9.85
2023-11-27T14:15:27.411Z,9.07
2023-11-27T14:18:18.847Z,10.13
2023-11-27T14:21:15.344Z,9.45
2023-11-27T14:23:55.852Z,10.73
2023-11-27T14:27:04.535Z,10.75
2023-11-27T14:29:39.295Z,12.00
2023-11-27T14:32:09.081Z,10.63
2023-11-27T14:34:39.011Z,10.52
2023-11-27T14:37:28.575Z,10.43
2023-11-27T14:40:16.904Z,10.38
2023-11-27T14:42:46.415Z,9.63
2023-11-27T14:45:23.709Z,10.20
2023-11-27T14:47:52.709Z,12.80
2023-11-27T14:50:33.989Z,11.38
2023-11-27T14:53:02.702Z,9.35
2023-11-27T14:55:34.376Z,9.38
2023-11-27T15:00:37.320Z,11.48
2023-11-27T15:03:13.737Z,12.00
2023-11-27T15:05:46.268Z,13.02
2023-11-27T15:10:44.770Z,10.45
2023-11-27T15:13:13.615Z,11.43
2023-11-27T15:16:10.584Z,11.80
2023-11-27T15:18:53.345Z,11.02
2023-11-27T15:21:22.585Z,11.53
2023-11-27T15:23:51.720Z,12.57
2023-11-27T15:26:20.177Z,14.93
2023-11-27T15:28:50.014Z,16.55
2023-11-27T15:31:18.833Z,16.27
2023-11-27T15:33:48.596Z,17.83
2023-11-27T15:36:23.122Z,16.25
2023-11-27T15:38:53.645Z,15.30
2023-11-27T15:41:22.095Z,18.98
2023-11-27T15:43:53.522Z,15.18
2023-11-27T15:46:23.105Z,14.93
2023-11-27T15:48:53.415Z,15.30
2023-11-27T15:51:25.621Z,17.33
2023-11-27T15:53:55.227Z,22.92
2023-11-27T15:56:25.268Z,19.80
2023-11-27T15:58:55.577Z,17.35
2023-11-27T16:01:25.181Z,14.13
2023-11-27T16:04:06.726Z,14.25
2023-11-27T17:34:48.209Z,22.60
2023-11-27T17:37:19.754Z,23.98
2023-11-27T17:39:48.959Z,23.17
2023-11-27T17:42:18.047Z,23.55
2023-11-27T17:44:46.807Z,24.70
2023-11-27T17:47:19.037Z,24.40
2023-11-27T17:49:49.226Z,23.00
2023-11-27T17:52:18.332Z,23.20
2023-11-27T17:57:45.552Z,22.75
2023-11-27T18:00:45.860Z,23.35
2023-11-27T18:03:18.886Z,24.00
2023-11-27T18:08:32.033Z,23.35
2023-11-27T18:11:15.029Z,24.27
2023-11-27T18:13:53.185Z,29.60
2023-11-27T18:16:45.133Z,30.45
2023-11-27T18:23:27.874Z,35.88
2023-11-27T18:26:15.400Z,37.13
2023-11-27T18:36:31.989Z,78.18
2023-11-27T18:39:14.285Z,68.18
2023-11-27T18:44:32.333Z,62.28
2023-11-27T18:45:36.286Z,60.38
2023-11-27T18:49:15.892Z,60.63
2023-11-27T20:54:43.662Z,14.27
2023-11-27T21:20:35.053Z,22.35
2023-11-27T21:23:04.199Z,25.63
2023-11-27T21:25:57.974Z,22.05
2023-11-27T21:28:31.095Z,26.02
2023-11-27T21:31:02.460Z,18.40
2023-11-27T21:33:32.579Z,16.92
2023-11-27T21:36:01.084Z,15.55
2023-11-27T21:38:30.180Z,24.02
2023-11-27T21:40:59.078Z,28.08
2023-11-27T21:43:28.191Z,26.50
2023-11-27T21:45:56.572Z,31.35
2023-11-27T21:48:29.069Z,29.40
2023-11-27T21:51:01.041Z,27.35
2023-11-27T21:53:29.858Z,21.42
2023-11-27T21:55:58.464Z,22.10
2023-11-27T21:58:27.335Z,20.10
2023-11-27T22:00:56.272Z,16.95
2023-11-27T22:03:25.239Z,24.05
2023-11-27T22:05:53.918Z,24.70
2023-11-27T22:08:50.975Z,21.60
2023-11-27T22:11:29.932Z,43.13
2023-11-27T22:13:59.402Z,43.78
2023-11-27T22:16:28.320Z,35.47
2023-11-27T22:18:58.357Z,33.53
2023-11-27T22:21:29.595Z,32.53
2023-11-27T22:24:00.343Z,32.42
2023-11-27T22:26:30.170Z,31.90
2023-11-27T22:28:59.306Z,28.15
2023-11-27T22:31:31.268Z,26.15
2023-11-27T22:34:02.644Z,28.27
2023-11-27T22:36:35.419Z,38.33
2023-11-27T22:39:08.341Z,80.55
2023-11-27T22:41:44.339Z,58.50
2023-11-27T22:44:15.835Z,60.30
2023-11-27T22:46:45.249Z,34.37
2023-11-27T22:49:18.308Z,26.20
2023-11-27T22:51:46.997Z,22.40
2023-11-27T22:54:19.960Z,24.98
2023-11-27T22:56:53.906Z,24.50
2023-11-27T22:59:29.311Z,35.10
2023-11-27T23:01:58.357Z,36.75
2023-11-27T23:04:28.990Z,32.60
2023-11-27T23:06:58.456Z,42.05
2023-11-27T23:09:27.682Z,35.25
2023-11-27T23:11:56.521Z,33.13
2023-11-27T23:14:25.783Z,27.95
2023-11-27T23:16:54.657Z,27.95
2023-11-27T23:19:28.207Z,24.95
2023-11-27T23:21:58.240Z,24.70
2023-11-27T23:24:29.183Z,27.83
2023-11-27T23:27:18.051Z,28.27
2023-11-27T23:29:47.063Z,28.10
2023-11-27T23:32:15.750Z,26.13
2023-11-27T23:34:45.330Z,22.80
2023-11-27T23:37:17.200Z,22.40
2023-11-27T23:39:49.647Z,22.73
2023-11-27T23:42:18.497Z,23.42
2023-11-27T23:44:47.505Z,23.75
2023-11-27T23:47:16.016Z,21.83
2023-11-27T23:49:45.466Z,22.20
2023-11-27T23:52:14.076Z,26.00
2023-11-27T23:54:42.970Z,24.98
2023-11-27T23:57:16.451Z,55.15
2023-11-27T23:59:45.547Z,42.42
